Time;durP1;ratioP1;P1;durP2;ratioP2;P2;SDS_P1;SDS_P2;PMS_P1;PMS_P2;Temp;Humidity;BMP_temperature;BMP_pressure;BME280_temperature;BME280_humidity;BME280_pressure;Samples;Min_cycle;Max_cycle;Signal;HPM_P1;HPM_P2
2023/03/14 00:01:17;;;;;;;8.05;1.27;;;11.30;99.90;;;;;;5042830;28;20460;-66
2023/03/14 00:03:43;;;;;;;5.97;1.15;;;11.30;99.90;;;;;;5060351;28;20037;-65
2023/03/14 00:06:10;;;;;;;5.72;1.13;;;11.30;99.90;;;;;;5059589;28;20171;-64
2023/03/14 00:08:36;;;;;;;5.63;1.55;;;11.30;99.90;;;;;;5060252;28;20357;-63
2023/03/14 00:11:07;;;;;;;5.05;1.17;;;11.40;99.90;;;;;;5060195;28;20452;-64
2023/03/14 00:13:33;;;;;;;7.30;1.00;;;11.40;99.90;;;;;;5042722;28;20033;-64
2023/03/14 00:16:03;;;;;;;5.85;1.00;;;11.40;99.90;;;;;;5060075;28;20029;-64
2023/03/14 00:18:29;;;;;;;4.03;0.95;;;11.40;99.90;;;;;;5059473;28;20375;-64
2023/03/14 00:20:58;;;;;;;5.72;1.00;;;11.40;99.90;;;;;;5059272;28;20116;-65
2023/03/14 00:23:24;;;;;;;4.20;0.90;;;11.30;99.90;;;;;;5059840;28;20039;-66
2023/03/14 00:25:50;;;;;;;6.25;1.00;;;11.40;99.90;;;;;;5059836;28;20463;-63
2023/03/14 00:28:16;;;;;;;4.68;1.05;;;11.30;99.90;;;;;;5059914;28;20029;-65
2023/03/14 00:30:41;;;;;;;5.75;0.90;;;11.30;99.90;;;;;;5059740;28;20021;-65
2023/03/14 00:33:08;;;;;;;4.32;0.90;;;11.20;99.90;;;;;;5042725;28;20099;-63
2023/03/14 00:35:34;;;;;;;4.47;0.60;;;11.20;99.90;;;;;;5059703;28;20308;-64
2023/03/14 00:38:00;;;;;;;5.68;1.10;;;11.20;99.90;;;;;;5042280;28;20040;-64
2023/03/14 00:40:25;;;;;;;3.42;0.70;;;11.20;99.90;;;;;;5059585;28;20033;-64
2023/03/14 00:42:51;;;;;;;3.90;1.00;;;11.20;99.90;;;;;;5059399;28;20044;-64
2023/03/14 00:45:18;;;;;;;5.03;0.75;;;11.20;99.90;;;;;;5058750;28;20036;-64
2023/03/14 00:47:45;;;;;;;6.35;1.00;;;11.20;99.90;;;;;;5058698;28;20032;-61
2023/03/14 00:50:11;;;;;;;5.07;0.70;;;11.20;99.90;;;;;;5058608;28;20032;-65
2023/03/14 00:52:38;;;;;;;4.25;0.98;;;11.20;99.90;;;;;;5058595;28;20071;-63
2023/03/14 00:55:05;;;;;;;6.00;1.10;;;11.30;99.90;;;;;;5059065;28;20405;-63
2023/03/14 00:57:31;;;;;;;5.47;1.08;;;11.20;99.90;;;;;;5059310;28;20040;-65
2023/03/14 00:59:57;;;;;;;6.07;1.33;;;11.30;99.90;;;;;;5041838;28;20033;-64
2023/03/14 01:02:23;;;;;;;6.32;0.82;;;11.30;99.90;;;;;;5059591;28;20043;-63
2023/03/14 01:04:49;;;;;;;6.47;1.40;;;11.30;99.90;;;;;;5042138;28;20063;-64
2023/03/14 01:07:15;;;;;;;5.13;0.90;;;11.30;99.90;;;;;;5041495;28;20460;-61
2023/03/14 01:09:41;;;;;;;6.82;1.40;;;11.20;99.90;;;;;;5057705;28;20040;-66
2023/03/14 01:12:08;;;;;;;6.95;1.42;;;11.20;99.90;;;;;;5041887;28;20428;-63
2023/03/14 01:14:34;;;;;;;8.73;1.52;;;11.20;99.90;;;;;;5041743;28;20328;-65
2023/03/14 01:17:00;;;;;;;6.35;1.50;;;11.20;99.90;;;;;;5058944;28;20371;-64
2023/03/14 01:19:28;;;;;;;9.05;1.77;;;11.20;99.90;;;;;;5025324;28;20301;-65
2023/03/14 01:21:54;;;;;;;7.72;1.73;;;11.10;99.90;;;;;;5059296;28;20033;-63
2023/03/14 01:24:20;;;;;;;6.88;1.50;;;11.10;99.90;;;;;;5059173;28;20080;-62
2023/03/14 01:26:46;;;;;;;6.70;1.42;;;11.10;99.90;;;;;;5024974;28;20094;-63
2023/03/14 01:29:12;;;;;;;9.23;2.00;;;11.00;99.90;;;;;;5057808;28;20033;-62
2023/03/14 01:31:40;;;;;;;6.95;1.55;;;11.00;99.90;;;;;;5057827;28;20170;-62
2023/03/14 01:34:06;;;;;;;5.82;1.35;;;11.00;99.90;;;;;;5057903;28;20124;-62
2023/03/14 01:36:32;;;;;;;10.43;1.50;;;11.00;99.90;;;;;;5057857;28;20048;-61
2023/03/14 01:39:00;;;;;;;8.18;1.42;;;11.00;99.90;;;;;;5041502;28;20033;-61
2023/03/14 01:41:26;;;;;;;7.88;1.73;;;11.00;99.90;;;;;;5057664;28;20036;-62
2023/03/14 01:43:54;;;;;;;5.80;1.20;;;11.00;99.90;;;;;;5058397;28;20032;-62
2023/03/14 01:46:31;;;;;;;7.93;1.17;;;11.00;99.90;;;;;;5041080;28;20036;-64
2023/03/14 01:49:06;;;;;;;7.72;1.45;;;10.90;99.90;;;;;;5057768;28;20032;-64
2023/03/14 01:52:04;;;;;;;7.15;1.25;;;10.90;99.90;;;;;;5057539;28;20025;-63
2023/03/14 01:54:37;;;;;;;7.63;1.40;;;10.90;99.90;;;;;;5057294;28;20132;-63
2023/03/14 01:57:24;;;;;;;4.80;1.23;;;10.90;99.90;;;;;;5057425;28;20060;-63
2023/03/14 02:00:10;;;;;;;5.00;1.27;;;10.90;99.90;;;;;;5057323;28;20037;-63
2023/03/14 02:02:42;;;;;;;8.20;1.50;;;10.90;99.90;;;;;;5058022;28;20033;-64
2023/03/14 02:05:10;;;;;;;6.57;1.50;;;10.90;99.90;;;;;;5057215;28;20027;-63
2023/03/14 02:07:51;;;;;;;7.72;1.30;;;10.90;99.90;;;;;;5040826;28;20029;-63
2023/03/14 02:10:25;;;;;;;8.38;1.23;;;10.80;99.90;;;;;;5057207;28;20052;-65
2023/03/14 02:12:53;;;;;;;9.68;1.60;;;10.70;99.90;;;;;;5040879;28;20057;-65
2023/03/14 02:15:38;;;;;;;9.40;1.40;;;10.70;99.90;;;;;;5057975;28;20039;-63
2023/03/14 02:18:17;;;;;;;8.55;1.52;;;10.70;99.90;;;;;;5027460;28;20308;-64
2023/03/14 02:21:04;;;;;;;7.82;1.05;;;10.70;99.90;;;;;;5057222;28;20037;-65
2023/03/14 02:23:43;;;;;;;6.70;1.30;;;10.80;99.90;;;;;;5057647;28;20036;-64
2023/03/14 02:26:14;;;;;;;4.80;0.85;;;10.80;99.90;;;;;;5057635;28;20112;-63
2023/03/14 02:28:40;;;;;;;5.88;1.08;;;10.80;99.90;;;;;;5058199;28;20032;-63
2023/03/14 02:31:08;;;;;;;10.32;1.20;;;10.90;99.90;;;;;;5056690;28;20363;-64
2023/03/14 02:33:37;;;;;;;6.63;1.50;;;10.90;99.90;;;;;;5024195;28;20033;-64
2023/03/14 02:36:07;;;;;;;6.25;1.13;;;10.90;99.90;;;;;;5056742;28;20039;-65
2023/03/14 02:38:48;;;;;;;7.30;0.90;;;10.90;99.90;;;;;;5056585;28;20096;-63
2023/03/14 02:41:15;;;;;;;4.90;1.10;;;10.80;99.90;;;;;;5040070;28;20109;-63
2023/03/14 02:43:46;;;;;;;;;;;10.90;99.90;;;;;;5057761;28;20094;-64
2023/03/14 02:46:17;;;;;;;4.53;1.08;;;10.90;99.90;;;;;;5056470;28;19913;-63
2023/03/14 02:48:49;;;;;;;6.00;1.25;;;10.80;99.90;;;;;;5057222;28;20108;-63
2023/03/14 02:51:16;;;;;;;6.38;0.98;;;10.80;99.90;;;;;;5056474;28;20096;-63
2023/03/14 02:53:45;;;;;;;6.28;0.80;;;10.80;99.90;;;;;;5056672;28;20098;-61
2023/03/14 02:56:12;;;;;;;6.38;0.90;;;10.80;99.90;;;;;;5056223;28;20052;-62
2023/03/14 02:58:38;;;;;;;4.80;0.93;;;10.70;99.90;;;;;;5056561;28;20381;-63
2023/03/14 03:01:18;;;;;;;6.57;1.02;;;10.60;99.90;;;;;;5056205;28;20025;-65
2023/03/14 03:03:45;;;;;;;5.75;0.70;;;10.60;99.90;;;;;;5039665;28;20029;-64
2023/03/14 03:06:11;;;;;;;3.13;0.93;;;10.60;99.90;;;;;;5056215;28;20082;-65
2023/03/14 03:08:37;;;;;;;4.53;0.80;;;10.60;99.90;;;;;;5056227;28;20052;-63
2023/03/14 03:11:03;;;;;;;5.55;0.82;;;10.60;99.90;;;;;;5056944;28;20037;-62
2023/03/14 03:13:32;;;;;;;5.03;0.68;;;10.60;99.90;;;;;;5056950;28;20055;-64
2023/03/14 03:16:00;;;;;;;5.30;0.90;;;10.60;99.90;;;;;;5056149;28;20037;-63
2023/03/14 03:18:25;;;;;;;6.03;1.00;;;10.60;99.90;;;;;;5057455;28;20047;-64
2023/03/14 03:20:51;;;;;;;4.03;0.90;;;10.50;99.90;;;;;;5056844;28;20369;-62
2023/03/14 03:23:17;;;;;;;5.28;1.20;;;10.40;99.90;;;;;;5056806;28;20029;-64
2023/03/14 03:25:48;;;;;;;5.22;1.48;;;10.40;99.90;;;;;;5039512;28;20082;-64
2023/03/14 03:28:14;;;;;;;4.55;1.10;;;10.40;99.90;;;;;;5056862;28;20032;-64
2023/03/14 03:30:41;;;;;;;4.63;1.13;;;10.50;99.90;;;;;;5055934;28;20124;-65
2023/03/14 03:33:07;;;;;;;5.78;1.35;;;10.50;99.90;;;;;;5059725;28;20408;-63
2023/03/14 03:35:34;;;;;;;7.03;1.30;;;10.50;99.90;;;;;;5043621;28;20055;-63
2023/03/14 03:38:00;;;;;;;9.75;1.27;;;10.40;99.90;;;;;;5060149;28;20404;-63
2023/03/14 03:40:27;;;;;;;6.13;1.10;;;10.30;99.90;;;;;;5027266;28;20434;-64
2023/03/14 03:42:53;;;;;;;8.82;1.40;;;10.30;99.90;;;;;;5043662;28;20029;-63
2023/03/14 03:45:18;;;;;;;3.92;1.00;;;10.20;99.90;;;;;;5059877;28;20021;-62
2023/03/14 03:47:50;;;;;;;4.57;1.25;;;10.20;99.90;;;;;;5044171;28;20108;-63
2023/03/14 03:50:16;;;;;;;4.68;1.40;;;10.10;99.90;;;;;;5060535;28;20108;-64
2023/03/14 03:52:42;;;;;;;6.13;1.30;;;10.10;99.90;;;;;;5060602;28;20043;-64
2023/03/14 03:55:09;;;;;;;4.97;1.23;;;10.10;99.90;;;;;;5059567;28;20409;-64
2023/03/14 03:57:34;;;;;;;6.28;1.38;;;10.10;99.90;;;;;;5060483;28;20452;-64
2023/03/14 04:00:00;;;;;;;4.25;1.00;;;10.10;99.90;;;;;;5043070;28;20040;-62
2023/03/14 04:02:27;;;;;;;7.72;1.70;;;10.00;99.90;;;;;;5060204;28;20366;-62
2023/03/14 04:04:53;;;;;;;6.78;1.50;;;10.00;99.90;;;;;;5059499;28;20032;-63
2023/03/14 04:07:19;;;;;;;6.50;1.42;;;9.90;99.90;;;;;;5059528;28;20357;-64
2023/03/14 04:09:45;;;;;;;6.53;1.38;;;10.00;99.90;;;;;;5059524;28;20037;-65
2023/03/14 04:12:31;;;;;;;6.10;1.58;;;10.00;99.90;;;;;;5060222;28;20120;-62
2023/03/14 04:15:02;;;;;;;6.90;1.63;;;10.00;99.90;;;;;;5059389;28;20044;-64
2023/03/14 04:17:29;;;;;;;10.07;2.28;;;10.00;99.90;;;;;;5059377;28;20061;-63
2023/03/14 04:19:55;;;;;;;8.20;1.70;;;10.00;99.90;;;;;;5042821;28;20065;-64
2023/03/14 04:22:29;;;;;;;8.75;1.75;;;10.00;99.90;;;;;;5028584;28;20332;-63
2023/03/14 04:24:55;;;;;;;6.50;1.95;;;10.00;99.90;;;;;;5059251;28;20029;-65
2023/03/14 04:27:21;;;;;;;8.98;2.08;;;10.10;99.90;;;;;;5042548;28;20021;-64
2023/03/14 04:29:48;;;;;;;7.05;1.60;;;10.20;99.90;;;;;;5042518;28;20033;-65
2023/03/14 04:32:17;;;;;;;9.30;1.75;;;10.20;99.90;;;;;;5059726;28;20052;-64
2023/03/14 04:34:43;;;;;;;8.32;1.80;;;10.20;99.90;;;;;;5042455;28;20412;-64
2023/03/14 04:37:09;;;;;;;9.02;1.95;;;10.20;99.90;;;;;;5042339;28;20044;-63
2023/03/14 04:39:39;;;;;;;9.38;1.95;;;10.20;99.90;;;;;;5058848;28;20033;-63
2023/03/14 04:42:13;;;;;;;7.68;1.98;;;10.20;99.90;;;;;;5059105;28;20037;-64
2023/03/14 04:44:39;;;;;;;7.03;2.33;;;10.20;99.90;;;;;;5058278;28;20031;-63
2023/03/14 04:47:05;;;;;;;7.72;2.28;;;10.20;99.90;;;;;;5058756;28;20130;-64
2023/03/14 04:49:32;;;;;;;11.77;2.30;;;10.10;99.90;;;;;;5058931;28;20021;-64
2023/03/14 04:51:59;;;;;;;5.70;2.08;;;10.10;99.90;;;;;;5042579;28;20064;-64
2023/03/14 04:54:26;;;;;;;5.30;1.95;;;10.10;99.90;;;;;;5058461;28;20057;-64
2023/03/14 04:56:56;;;;;;;8.30;2.40;;;10.10;99.90;;;;;;5058597;28;20033;-64
2023/03/14 04:59:23;;;;;;;7.05;2.28;;;10.10;99.90;;;;;;5058548;28;20409;-65
2023/03/14 05:01:51;;;;;;;6.40;1.95;;;10.10;99.90;;;;;;5058451;28;20102;-64
2023/03/14 05:04:40;;;;;;;5.63;2.22;;;10.10;99.90;;;;;;5059175;28;20029;-65
2023/03/14 05:07:32;;;;;;;6.07;2.50;;;10.10;99.90;;;;;;5050966;28;20055;-65
2023/03/14 05:10:09;;;;;;;6.35;2.50;;;10.10;99.90;;;;;;5058766;28;20029;-65
2023/03/14 05:12:54;;;;;;;5.03;2.08;;;10.10;99.90;;;;;;5044252;28;20430;-64
2023/03/14 05:15:30;;;;;;;5.47;2.70;;;10.20;99.90;;;;;;5058267;28;20143;-64
2023/03/14 05:18:18;;;;;;;5.15;2.08;;;10.20;99.90;;;;;;5059074;28;20045;-63
2023/03/14 05:21:04;;;;;;;5.43;2.30;;;10.20;99.90;;;;;;5058596;28;20114;-63
2023/03/14 05:23:42;;;;;;;6.07;1.95;;;10.30;99.90;;;;;;5059050;28;20132;-64
2023/03/14 05:26:27;;;;;;;3.90;1.77;;;10.40;99.90;;;;;;5057958;28;20094;-64
2023/03/14 05:29:13;;;;;;;5.63;2.17;;;10.40;99.90;;;;;;5044994;28;20043;-64
2023/03/14 05:32:00;;;;;;;2.67;2.17;;;10.40;99.90;;;;;;5058123;28;20316;-64
2023/03/14 05:34:45;;;;;;;4.68;2.50;;;10.40;99.90;;;;;;5058041;28;20091;-63
2023/03/14 05:37:47;;;;;;;5.25;2.05;;;10.50;99.90;;;;;;5057146;28;20052;-62
2023/03/14 05:40:31;;;;;;;5.38;2.20;;;10.50;99.90;;;;;;5058961;28;20084;-64
2023/03/14 05:43:20;;;;;;;5.15;2.53;;;10.50;99.90;;;;;;5057619;28;20349;-64
2023/03/14 05:46:12;;;;;;;7.72;2.95;;;10.50;99.90;;;;;;5057616;28;20450;-63
2023/03/14 05:49:01;;;;;;;8.13;3.47;;;10.60;99.90;;;;;;5058183;28;20037;-64
2023/03/14 05:51:53;;;;;;;6.18;3.58;;;10.50;99.90;;;;;;5057886;28;20059;-64
2023/03/14 05:54:35;;;;;;;8.75;3.72;;;10.50;99.90;;;;;;5042570;28;20443;-64
2023/03/14 05:57:27;;;;;;;7.63;4.33;;;10.60;99.90;;;;;;5049820;28;20037;-62
2023/03/14 06:00:25;;;;;;;10.18;4.90;;;10.40;99.90;;;;;;5057444;28;20045;-63
2023/03/14 06:03:03;;;;;;;8.95;5.90;;;10.30;99.90;;;;;;5057396;28;20025;-63
2023/03/14 06:05:33;;;;;;;10.70;5.55;;;10.30;99.90;;;;;;5057053;28;20312;-63
2023/03/14 06:08:00;;;;;;;8.50;5.45;;;10.30;99.90;;;;;;5057900;28;20098;-61
2023/03/14 06:10:28;;;;;;;7.18;5.70;;;10.30;99.90;;;;;;5056927;28;20029;-62
2023/03/14 06:12:54;;;;;;;9.05;5.90;;;10.20;99.90;;;;;;5057052;28;20290;-62
2023/03/14 06:15:20;;;;;;;8.52;5.80;;;10.20;99.90;;;;;;5040407;28;20060;-60
2023/03/14 06:17:48;;;;;;;8.52;5.20;;;10.10;99.90;;;;;;5057025;28;20071;-65
2023/03/14 06:20:16;;;;;;;8.88;5.90;;;10.10;99.90;;;;;;5057080;28;20124;-61
2023/03/14 06:22:42;;;;;;;9.27;5.82;;;10.10;99.90;;;;;;5057289;28;20132;-61
2023/03/14 06:25:10;;;;;;;10.85;6.50;;;10.20;99.90;;;;;;5056494;28;20094;-60
2023/03/14 06:27:36;;;;;;;7.20;5.32;;;10.20;99.90;;;;;;5023697;28;20029;-60
2023/03/14 06:30:02;;;;;;;5.93;4.70;;;10.20;99.90;;;;;;5039853;28;20063;-61
2023/03/14 06:32:30;;;;;;;5.85;4.40;;;10.20;99.90;;;;;;5040284;28;20040;-60
2023/03/14 06:35:00;;;;;;;2.95;1.30;;;10.20;99.90;;;;;;5056499;28;20325;-61
2023/03/14 06:37:28;;;;;;;3.63;0.90;;;10.00;99.90;;;;;;5056654;28;20069;-61
2023/03/14 06:39:55;;;;;;;1.00;0.45;;;9.60;99.90;;;;;;5056532;28;20032;-67
2023/03/14 06:42:39;;;;;;;3.60;0.57;;;9.40;99.90;;;;;;5056576;28;20033;-62
2023/03/14 06:45:06;;;;;;;2.92;0.57;;;9.10;99.90;;;;;;5056411;28;20029;-62
2023/03/14 06:47:32;;;;;;;3.60;0.77;;;9.00;99.90;;;;;;5056328;28;20281;-63
2023/03/14 06:49:58;;;;;;;3.63;1.15;;;9.00;99.90;;;;;;5056161;28;20313;-61
2023/03/14 06:52:24;;;;;;;3.13;1.52;;;8.90;99.90;;;;;;5056947;28;20032;-62
2023/03/14 06:54:50;;;;;;;6.88;1.55;;;8.90;99.90;;;;;;5023144;28;20053;-62
2023/03/14 06:57:19;;;;;;;5.00;1.65;;;8.80;99.90;;;;;;5056473;28;20047;-63
2023/03/14 06:59:45;;;;;;;9.52;2.00;;;8.80;99.90;;;;;;5056220;28;20044;-62
2023/03/14 07:02:12;;;;;;;4.53;1.30;;;8.70;99.90;;;;;;5056172;28;20029;-62
2023/03/14 07:04:39;;;;;;;2.35;1.08;;;8.70;99.90;;;;;;5056066;28;20029;-63
2023/03/14 07:07:06;;;;;;;3.35;1.10;;;8.60;99.90;;;;;;5055444;28;20029;-62
2023/03/14 07:09:35;;;;;;;4.97;1.25;;;8.60;99.90;;;;;;5039748;28;20037;-62
2023/03/14 07:12:03;;;;;;;5.55;1.75;;;8.60;99.90;;;;;;5056062;28;20033;-62
2023/03/14 07:14:30;;;;;;;6.47;2.20;;;8.60;99.90;;;;;;5056062;28;20032;-61
2023/03/14 07:16:56;;;;;;;6.80;2.00;;;8.40;99.90;;;;;;5056403;28;20313;-65
2023/03/14 07:19:22;;;;;;;5.28;1.45;;;8.30;99.90;;;;;;5039451;28;20033;-64
2023/03/14 07:21:48;;;;;;;5.15;1.40;;;8.20;99.90;;;;;;5056127;28;20273;-64
2023/03/14 07:24:17;;;;;;;7.10;1.48;;;8.10;99.90;;;;;;5056104;28;20364;-63
2023/03/14 07:26:42;;;;;;;3.20;1.08;;;8.10;99.90;;;;;;5023006;28;20067;-64
2023/03/14 07:29:09;;;;;;;9.57;1.25;;;8.10;99.90;;;;;;5039450;28;20033;-61
2023/03/14 07:31:36;;;;;;;5.15;1.08;;;8.10;99.90;;;;;;5056223;28;20167;-59
2023/03/14 07:34:02;;;;;;;4.30;1.10;;;8.10;99.90;;;;;;5055825;28;20033;-60
2023/03/14 07:36:32;;;;;;;4.57;0.93;;;8.00;99.90;;;;;;5056218;28;20029;-60
2023/03/14 07:38:58;;;;;;;6.13;1.08;;;8.00;99.90;;;;;;5056617;28;20032;-60
2023/03/14 07:41:39;;;;;;;7.15;0.93;;;8.00;99.90;;;;;;5056116;28;20178;-60
2023/03/14 07:44:24;;;;;;;4.82;0.77;;;8.00;99.90;;;;;;5056533;28;20048;-60
2023/03/14 07:46:49;;;;;;;6.40;1.08;;;7.90;99.90;;;;;;5055811;28;20037;-60
2023/03/14 07:49:15;;;;;;;6.38;1.10;;;7.90;99.90;;;;;;5056508;28;20396;-60
2023/03/14 07:51:43;;;;;;;6.07;1.17;;;7.90;99.90;;;;;;5055855;28;20289;-60
2023/03/14 07:54:09;;;;;;;8.90;1.50;;;7.80;99.90;;;;;;5056787;28;20408;-60
2023/03/14 07:56:35;;;;;;;10.35;1.17;;;7.90;99.90;;;;;;5056352;28;20352;-61
2023/03/14 07:59:01;;;;;;;8.38;1.60;;;7.90;99.90;;;;;;5056424;28;20025;-62
2023/03/14 08:01:27;;;;;;;5.90;1.48;;;8.00;99.90;;;;;;5056476;28;20389;-59
2023/03/14 08:03:53;;;;;;;7.20;1.30;;;8.00;99.90;;;;;;5056352;28;20347;-60
2023/03/14 08:06:19;;;;;;;5.95;1.45;;;8.00;99.90;;;;;;5056373;28;20033;-62
2023/03/14 08:08:45;;;;;;;8.60;1.48;;;8.00;99.90;;;;;;5056262;28;20036;-61
2023/03/14 08:11:10;;;;;;;6.10;1.42;;;8.00;99.90;;;;;;5055372;28;20083;-62
2023/03/14 08:13:37;;;;;;;5.72;1.45;;;8.10;99.90;;;;;;5039097;28;20045;-61
2023/03/14 08:16:04;;;;;;;5.43;1.58;;;8.10;99.90;;;;;;5056043;28;20025;-61
2023/03/14 08:18:30;;;;;;;4.78;1.20;;;8.20;99.90;;;;;;5058207;28;20091;-62
2023/03/14 08:20:55;;;;;;;4.22;0.90;;;8.20;99.90;;;;;;5059076;28;20037;-61
2023/03/14 08:23:21;;;;;;;3.65;0.93;;;8.30;99.90;;;;;;5059285;28;20094;-61
2023/03/14 08:25:51;;;;;;;7.35;1.00;;;8.30;99.90;;;;;;5059846;28;20029;-64
2023/03/14 08:28:18;;;;;;;10.80;1.10;;;8.30;99.90;;;;;;5059124;28;20033;-63
2023/03/14 08:30:44;;;;;;;3.25;0.70;;;8.30;99.90;;;;;;5058982;28;20094;-62
2023/03/14 08:33:10;;;;;;;6.32;1.25;;;8.20;99.90;;;;;;5059850;28;20033;-62
2023/03/14 08:35:38;;;;;;;5.10;0.90;;;8.20;99.90;;;;;;5058872;28;20044;-62
2023/03/14 08:38:03;;;;;;;3.85;1.08;;;8.30;99.90;;;;;;5058810;28;20107;-62
2023/03/14 08:40:29;;;;;;;7.85;0.70;;;8.40;99.90;;;;;;5059656;28;20111;-63
2023/03/14 08:42:55;;;;;;;4.38;0.90;;;8.50;99.90;;;;;;5059643;28;20289;-62
2023/03/14 08:45:21;;;;;;;3.63;0.85;;;8.60;99.90;;;;;;5058775;28;20033;-63
2023/03/14 08:47:47;;;;;;;7.13;1.25;;;8.40;99.90;;;;;;5058629;28;20050;-61
2023/03/14 08:50:13;;;;;;;5.30;0.70;;;8.40;99.90;;;;;;5058748;28;20071;-64
2023/03/14 08:52:40;;;;;;;5.15;1.00;;;8.50;99.90;;;;;;5058807;28;20116;-64
2023/03/14 08:55:08;;;;;;;3.30;0.70;;;8.70;99.90;;;;;;5042080;28;20328;-66
2023/03/14 08:57:34;;;;;;;4.85;1.08;;;8.70;99.90;;;;;;5059426;28;20032;-67
2023/03/14 09:00:00;;;;;;;5.47;0.95;;;8.60;99.90;;;;;;5042038;28;20094;-64
2023/03/14 09:02:26;;;;;;;1.88;0.80;;;8.40;99.90;;;;;;5041848;28;20059;-66
2023/03/14 09:04:52;;;;;;;5.78;0.82;;;8.20;99.90;;;;;;5059264;28;20025;-63
2023/03/14 09:07:19;;;;;;;5.28;1.00;;;8.10;99.90;;;;;;5058526;28;20053;-62
2023/03/14 09:09:45;;;;;;;4.38;1.15;;;8.10;99.90;;;;;;5058464;28;20380;-64
2023/03/14 09:12:12;;;;;;;8.20;1.25;;;8.20;99.90;;;;;;5058897;28;20482;-63
2023/03/14 09:14:38;;;;;;;2.88;0.63;;;8.30;99.90;;;;;;5059019;28;20282;-62
2023/03/14 09:17:04;;;;;;;3.15;0.52;;;8.40;99.90;;;;;;5059430;28;20070;-62
2023/03/14 09:19:30;;;;;;;3.25;0.90;;;8.40;99.90;;;;;;5058955;28;20025;-63
2023/03/14 09:21:56;;;;;;;2.78;0.35;;;8.30;99.90;;;;;;5058778;28;20359;-63
2023/03/14 09:24:22;;;;;;;1.83;0.50;;;8.10;99.90;;;;;;5058204;28;20032;-61
2023/03/14 09:26:47;;;;;;;4.85;0.40;;;7.90;99.90;;;;;;5058816;28;20021;-63
2023/03/14 09:29:13;;;;;;;1.58;0.45;;;7.80;99.90;;;;;;5057979;28;20032;-61
2023/03/14 09:31:42;;;;;;;2.13;0.40;;;7.90;99.90;;;;;;5058351;28;20033;-62
2023/03/14 09:34:11;;;;;;;2.30;0.55;;;7.90;99.90;;;;;;5057837;28;20028;-62
2023/03/14 09:36:38;;;;;;;2.42;0.60;;;8.10;99.90;;;;;;5058529;28;20041;-63
2023/03/14 09:39:04;;;;;;;1.02;0.43;;;8.10;99.90;;;;;;5059019;28;20052;-61
2023/03/14 09:41:34;;;;;;;4.55;0.50;;;8.10;99.90;;;;;;5058497;28;20029;-64
2023/03/14 09:44:10;;;;;;;0.60;0.30;;;8.10;99.90;;;;;;5057786;28;20388;-62
2023/03/14 09:46:38;;;;;;;2.53;0.30;;;8.00;99.90;;;;;;5058415;28;20032;-63
2023/03/14 09:49:30;;;;;;;1.67;0.47;;;8.00;99.90;;;;;;5058362;28;20028;-61
2023/03/14 09:51:59;;;;;;;2.20;0.38;;;7.90;99.90;;;;;;5057720;28;20041;-61
2023/03/14 09:54:37;;;;;;;1.70;0.30;;;7.80;99.90;;;;;;5058011;28;20063;-62
2023/03/14 09:57:05;;;;;;;2.63;0.50;;;7.70;99.90;;;;;;5057361;28;20109;-60
2023/03/14 09:59:34;;;;;;;2.28;0.52;;;7.50;99.90;;;;;;5058037;28;20040;-67
2023/03/14 10:02:20;;;;;;;1.67;0.57;;;7.50;99.90;;;;;;5057297;28;20392;-59
2023/03/14 10:04:47;;;;;;;1.23;0.60;;;7.60;99.90;;;;;;5058224;28;20075;-59
2023/03/14 10:07:20;;;;;;;4.70;0.80;;;7.50;99.90;;;;;;5058036;28;20017;-61
2023/03/14 10:09:49;;;;;;;2.53;0.70;;;7.60;99.90;;;;;;5057942;28;20024;-60
2023/03/14 10:12:17;;;;;;;6.05;0.82;;;7.70;99.90;;;;;;5057882;28;20126;-63
2023/03/14 10:15:10;;;;;;;5.45;0.90;;;8.10;99.90;;;;;;5057766;28;20109;-61
2023/03/14 10:17:47;;;;;;;8.18;1.42;;;8.20;99.90;;;;;;5057510;28;20045;-61
2023/03/14 10:20:34;;;;;;;7.55;1.95;;;8.20;99.90;;;;;;5057711;28;20036;-61
2023/03/14 10:23:23;;;;;;;4.70;1.58;;;8.40;99.90;;;;;;5056899;28;20033;-61
2023/03/14 10:26:23;;;;;;;5.32;1.58;;;8.50;99.90;;;;;;5057292;28;20404;-62
2023/03/14 10:29:01;;;;;;;5.18;1.00;;;8.80;99.90;;;;;;5057410;28;20056;-62
2023/03/14 10:31:28;;;;;;;3.53;1.17;;;8.90;99.90;;;;;;5056860;28;20057;-62
2023/03/14 10:33:59;;;;;;;5.03;1.08;;;8.80;99.90;;;;;;5056873;28;20153;-61
2023/03/14 10:36:29;;;;;;;6.28;0.95;;;8.80;99.90;;;;;;5057523;28;20039;-60
2023/03/14 10:39:28;;;;;;;6.43;0.90;;;8.70;99.90;;;;;;5057533;28;20040;-63
2023/03/14 10:42:02;;;;;;;6.40;0.70;;;8.80;99.90;;;;;;5057482;28;20399;-63
2023/03/14 10:44:30;;;;;;;7.18;0.82;;;8.70;99.90;;;;;;5057916;28;20025;-63
2023/03/14 10:47:01;;;;;;;4.53;0.90;;;9.00;99.90;;;;;;5057331;28;20051;-61
2023/03/14 10:49:37;;;;;;;2.92;0.70;;;9.40;99.90;;;;;;5056968;28;20033;-61
2023/03/14 10:52:13;;;;;;;9.27;1.40;;;9.90;99.90;;;;;;5057174;28;20036;-62
2023/03/14 10:54:39;;;;;;;8.82;1.20;;;10.20;99.90;;;;;;5056803;28;20037;-62
2023/03/14 10:57:06;;;;;;;7.38;1.40;;;10.30;99.90;;;;;;5056463;28;20040;-62
2023/03/14 10:59:41;;;;;;;4.55;0.90;;;10.40;99.90;;;;;;5057745;28;20058;-63
2023/03/14 11:02:32;;;;;;;6.22;0.95;;;10.50;99.90;;;;;;5056939;28;20037;-63
2023/03/14 11:05:10;;;;;;;8.90;1.30;;;10.80;99.90;;;;;;5056854;28;20029;-63
2023/03/14 11:07:41;;;;;;;4.03;1.23;;;11.30;99.90;;;;;;5057481;28;20040;-62
2023/03/14 11:10:33;;;;;;;6.22;0.85;;;11.60;99.90;;;;;;5056197;28;20047;-61
2023/03/14 11:13:18;;;;;;;8.43;0.90;;;11.50;99.90;;;;;;5056977;28;20028;-60
2023/03/14 11:15:52;;;;;;;4.53;0.93;;;11.30;99.90;;;;;;5056870;28;20035;-61
2023/03/14 11:18:43;;;;;;;5.10;0.90;;;11.10;99.90;;;;;;5056959;28;20063;-61
2023/03/14 11:21:17;;;;;;;6.78;1.05;;;11.20;99.90;;;;;;5039483;28;20036;-62
2023/03/14 11:23:57;;;;;;;8.93;1.20;;;11.30;99.90;;;;;;5057246;28;20025;-62
2023/03/14 11:26:29;;;;;;;7.88;1.60;;;11.60;99.90;;;;;;5056776;28;20044;-62
2023/03/14 11:29:12;;;;;;;7.35;1.10;;;11.50;99.90;;;;;;5056715;28;20025;-61
2023/03/14 11:31:42;;;;;;;7.75;2.13;;;11.00;99.90;;;;;;5056986;28;20029;-63
2023/03/14 11:34:23;;;;;;;10.18;1.50;;;10.20;99.90;;;;;;5056689;28;20095;-64
2023/03/14 11:37:01;;;;;;;9.40;1.65;;;9.50;99.90;;;;;;5039239;28;20033;-63
2023/03/14 11:39:38;;;;;;;5.72;1.40;;;9.20;99.90;;;;;;5056644;28;20059;-62
2023/03/14 11:42:04;;;;;;;10.20;1.52;;;8.70;99.90;;;;;;5057191;28;20086;-62
2023/03/14 11:44:39;;;;;;;9.55;1.42;;;8.50;99.90;;;;;;5055952;28;20052;-62
2023/03/14 11:47:29;;;;;;;10.32;1.38;;;8.30;99.90;;;;;;5056861;28;20029;-62
2023/03/14 11:50:18;;;;;;;8.50;1.65;;;8.30;99.90;;;;;;5055835;28;20389;-62
2023/03/14 11:52:47;;;;;;;8.15;1.80;;;8.30;99.90;;;;;;5057041;28;20293;-62
2023/03/14 11:55:19;;;;;;;15.43;1.70;;;8.50;99.90;;;;;;5060366;28;20041;-62
2023/03/14 11:57:45;;;;;;;11.13;1.75;;;8.70;99.90;;;;;;5060257;28;20071;-61
2023/03/14 12:00:19;;;;;;;12.02;2.00;;;9.10;99.90;;;;;;5060359;28;20388;-62
2023/03/14 12:03:13;;;;;;;13.63;2.05;;;9.60;99.90;;;;;;5059504;28;20021;-62
2023/03/14 12:06:03;;;;;;;12.23;2.33;;;10.30;99.90;;;;;;5059637;28;20411;-62
2023/03/14 12:08:39;;;;;;;12.70;2.40;;;10.70;99.90;;;;;;5060141;28;20028;-64
2023/03/14 12:11:23;;;;;;;10.65;2.05;;;10.70;99.90;;;;;;5060119;28;20025;-63
2023/03/14 12:13:52;;;;;;;13.68;2.50;;;10.80;99.90;;;;;;5059529;28;20379;-62
2023/03/14 12:16:24;;;;;;;15.13;2.40;;;10.90;99.90;;;;;;5059965;28;20087;-62
2023/03/14 12:18:53;;;;;;;17.63;2.88;;;11.10;99.90;;;;;;5060135;28;20487;-62
2023/03/14 12:21:20;;;;;;;12.98;1.98;;;11.40;99.90;;;;;;5059909;28;20021;-62
2023/03/14 12:23:55;;;;;;;19.02;2.80;;;11.30;99.90;;;;;;5059844;28;20044;-62
2023/03/14 12:26:26;;;;;;;13.55;2.72;;;11.40;99.90;;;;;;5060102;28;20437;-62
2023/03/14 12:29:16;;;;;;;13.30;2.58;;;11.20;99.90;;;;;;5059744;28;20415;-62
2023/03/14 12:31:47;;;;;;;19.73;3.03;;;10.90;99.90;;;;;;5059354;28;20400;-61
2023/03/14 12:34:13;;;;;;;18.85;2.95;;;10.60;99.90;;;;;;5059023;28;20401;-61
2023/03/14 12:36:48;;;;;;;14.40;3.13;;;10.00;99.90;;;;;;5059652;28;20036;-61
2023/03/14 12:39:31;;;;;;;14.73;2.45;;;9.40;99.90;;;;;;5058901;28;20396;-62
2023/03/14 12:42:23;;;;;;;;;;;9.20;99.90;;;;;;5042592;28;20126;-62
2023/03/14 12:44:50;;;;;;;13.85;2.70;;;9.20;99.90;;;;;;5051000;28;19951;-62
2023/03/14 12:47:19;;;;;;;21.15;3.17;;;9.40;99.90;;;;;;5059871;28;20056;-62
2023/03/14 12:49:48;;;;;;;14.75;2.53;;;9.60;99.90;;;;;;5058648;28;20067;-62
2023/03/14 12:52:31;;;;;;;24.65;2.83;;;9.80;99.90;;;;;;5059700;28;20416;-62
2023/03/14 12:55:29;;;;;;;20.85;2.67;;;10.30;99.90;;;;;;5059508;28;20123;-63
2023/03/14 12:58:08;;;;;;;17.15;3.00;;;10.70;99.90;;;;;;5059254;28;20032;-62
2023/03/14 13:00:39;;;;;;;17.38;2.65;;;10.70;99.90;;;;;;5059562;28;20388;-61
2023/03/14 13:03:22;;;;;;;16.77;2.08;;;10.80;99.90;;;;;;5059142;28;20036;-62
2023/03/14 13:05:57;;;;;;;16.13;3.13;;;10.60;99.90;;;;;;5041241;28;20025;-62
2023/03/14 13:08:44;;;;;;;16.55;2.38;;;10.40;99.90;;;;;;5059182;28;20024;-61
2023/03/14 13:11:18;;;;;;;8.82;2.20;;;10.20;99.90;;;;;;5059061;28;20367;-62
2023/03/14 13:13:56;;;;;;;11.07;1.73;;;10.10;99.90;;;;;;5058985;28;20119;-62